Time;durP1;ratioP1;P1;durP2;ratioP2;P2;SDS_P1;SDS_P2;PMS_P1;PMS_P2;Temp;Humidity;BMP_temperature;BMP_pressure;BME280_temperature;BME280_humidity;BME280_pressure;Samples;Min_cycle;Max_cycle;Signal;HPM_P1;HPM_P2
2023/05/26 00:01:15;;;;;;;;;;;;;;;30.29;29.25;98752.19;5073507;28;20018;-86
2023/05/26 00:03:44;;;;;;;;;;;;;;;30.32;29.72;98756.13;5066343;28;20021;-86
2023/05/26 00:06:11;;;;;;;;;;;;;;;30.38;29.33;98751.50;5066093;28;20498;-86
2023/05/26 00:08:38;;;;;;;;;;;;;;;30.45;29.13;98746.38;5073404;28;20261;-86
2023/05/26 00:11:05;;;;;;;;;;;;;;;30.48;29.19;98759.59;5073865;28;19991;-86
2023/05/26 00:13:31;;;;;;;;;;;;;;;30.37;29.15;98761.22;5071859;28;19928;-85
2023/05/26 00:15:57;;;;;;;;;;;;;;;30.29;29.33;98749.38;5067493;28;19916;-87
2023/05/26 00:18:26;;;;;;;;;;;;;;;30.23;28.86;98753.22;5070081;28;19958;-87
2023/05/26 00:20:55;;;;;;;;;;;;;;;30.03;29.58;98759.22;5071162;28;19920;-87
2023/05/26 00:23:21;;;;;;;;;;;;;;;29.85;30.13;98753.38;5073728;28;19920;-87
2023/05/26 00:25:50;;;;;;;;;;;;;;;29.88;29.84;98758.91;5071895;28;19923;-87
2023/05/26 00:28:17;;;;;;;;;;;;;;;30.07;29.51;98754.22;5063153;28;20318;-86
2023/05/26 00:30:42;;;;;;;;;;;;;;;30.09;29.04;98755.34;5067329;28;20020;-86
2023/05/26 00:33:09;;;;;;;;;;;;;;;29.95;29.89;98750.16;5062312;28;20015;-86
2023/05/26 00:35:35;;;;;;;;;;;;;;;30.13;29.21;98745.91;5070835;28;19920;-87
2023/05/26 00:38:02;;;;;;;;;;;;;;;30.06;29.71;98746.94;5072570;28;19938;-87
2023/05/26 00:40:28;;;;;;;;;;;;;;;30.07;29.25;98740.84;5073868;28;20367;-86
2023/05/26 00:42:54;;;;;;;;;;;;;;;29.87;30.11;98742.41;5072671;28;19920;-87
2023/05/26 00:45:20;;;;;;;;;;;;;;;30.02;29.23;98743.47;5074076;28;19916;-86
2023/05/26 00:47:46;;;;;;;;;;;;;;;30.12;29.20;98738.66;5075140;28;19927;-87
2023/05/26 00:50:13;;;;;;;;;;;;;;;30.08;29.49;98742.41;5077242;28;20304;-87
2023/05/26 00:52:40;;;;;;;;;;;;;;;30.11;29.34;98735.03;5067708;28;20321;-86
2023/05/26 00:55:07;;;;;;;;;;;;;;;30.04;29.91;98738.13;5074013;28;20013;-86
2023/05/26 00:57:34;;;;;;;;;;;;;;;30.07;29.64;98734.38;5060412;28;19927;-87
2023/05/26 01:00:00;;;;;;;;;;;;;;;29.93;28.93;98740.53;5074212;28;19931;-87
2023/05/26 01:02:26;;;;;;;;;;;;;;;29.60;30.12;98740.03;5065924;28;19927;-87
2023/05/26 01:04:53;;;;;;;;;;;;;;;29.75;29.08;98737.53;5064316;28;19932;-87
2023/05/26 01:07:20;;;;;;;;;;;;;;;29.72;29.54;98733.56;5062692;28;19954;-87
2023/05/26 01:09:48;;;;;;;;;;;;;;;29.82;29.16;98735.28;5072048;28;19921;-87
2023/05/26 01:12:20;;;;;;;;;;;;;;;29.87;29.06;98731.06;5084078;28;20286;-87
2023/05/26 01:14:52;;;;;;;;;;;;;;;29.80;29.16;98728.47;5068975;28;19959;-87
2023/05/26 01:17:22;;;;;;;;;;;;;;;29.79;29.11;98727.69;5068115;28;19920;-87
2023/05/26 01:20:03;;;;;;;;;;;;;;;29.87;29.22;98722.56;5064413;28;19920;-87
2023/05/26 01:22:29;;;;;;;;;;;;;;;29.88;29.14;98719.28;5072761;28;20007;-87
2023/05/26 01:25:06;;;;;;;;;;;;;;;29.86;28.99;98723.81;5070505;28;20399;-87
2023/05/26 01:27:45;;;;;;;;;;;;;;;29.59;29.73;98724.31;5061459;28;19931;-87
2023/05/26 01:30:12;;;;;;;;;;;;;;;29.65;29.37;98718.88;5070288;28;20011;-87
2023/05/26 01:32:44;;;;;;;;;;;;;;;29.77;29.59;98718.06;5069971;28;19927;-87
2023/05/26 01:35:11;;;;;;;;;;;;;;;29.82;29.38;98718.28;5063459;28;19963;-88
2023/05/26 01:37:37;;;;;;;;;;;;;;;29.87;29.20;98719.75;5071954;28;19920;-87
2023/05/26 01:40:03;;;;;;;;;;;;;;;29.85;28.82;98717.34;5085430;28;19931;-87
2023/05/26 01:42:32;;;;;;;;;;;;;;;29.83;28.72;98717.03;5072070;28;19920;-87
2023/05/26 01:45:03;;;;;;;;;;;;;;;29.78;28.88;98723.25;5068455;28;19927;-87
2023/05/26 01:47:30;;;;;;;;;;;;;;;29.80;29.13;98714.34;5064131;28;20292;-87
2023/05/26 01:49:58;;;;;;;;;;;;;;;29.86;28.83;98716.13;5072845;28;19959;-87
2023/05/26 01:52:24;;;;;;;;;;;;;;;29.91;29.06;98707.03;5073169;28;20348;-87
2023/05/26 01:54:56;;;;;;;;;;;;;;;29.81;28.88;98719.53;5065248;28;19917;-87
2023/05/26 01:57:23;;;;;;;;;;;;;;;29.55;29.32;98717.19;5072592;28;19916;-87
2023/05/26 01:59:51;;;;;;;;;;;;;;;29.59;29.35;98720.69;5071906;28;20018;-87
2023/05/26 02:02:17;;;;;;;;;;;;;;;29.70;29.38;98721.91;5066140;28;20368;-87
2023/05/26 02:04:43;;;;;;;;;;;;;;;29.81;29.04;98721.56;5070436;28;19920;-87
2023/05/26 02:07:09;;;;;;;;;;;;;;;29.76;29.37;98711.59;5072439;28;19924;-87
2023/05/26 02:09:36;;;;;;;;;;;;;;;29.86;29.17;98716.13;5071120;28;19939;-87
2023/05/26 02:12:03;;;;;;;;;;;;;;;29.93;29.00;98712.22;5067690;28;19924;-87
2023/05/26 02:14:29;;;;;;;;;;;;;;;29.93;28.80;98715.06;5077522;28;19927;-87
2023/05/26 02:16:55;;;;;;;;;;;;;;;29.86;28.92;98718.16;5074393;28;19920;-87
2023/05/26 02:19:22;;;;;;;;;;;;;;;29.62;29.76;98711.28;5072344;28;19921;-87
2023/05/26 02:21:48;;;;;;;;;;;;;;;29.74;29.25;98710.44;5077813;28;20315;-87
2023/05/26 02:24:14;;;;;;;;;;;;;;;29.63;29.08;98696.69;5073413;28;19931;-87
2023/05/26 02:26:40;;;;;;;;;;;;;;;29.54;29.48;98701.47;5073795;28;19925;-88
2023/05/26 02:29:06;;;;;;;;;;;;;;;29.69;29.10;98699.72;5069392;28;19997;-87
2023/05/26 02:31:34;;;;;;;;;;;;;;;29.78;29.02;98694.19;5067854;28;19970;-88
2023/05/26 02:34:01;;;;;;;;;;;;;;;29.87;29.06;98697.09;5071447;28;19932;-88
2023/05/26 02:36:27;;;;;;;;;;;;;;;29.73;28.83;98701.19;5077063;28;19974;-88
2023/05/26 02:38:53;;;;;;;;;;;;;;;29.58;29.31;98696.47;5074518;28;19916;-87
2023/05/26 02:41:19;;;;;;;;;;;;;;;29.59;29.34;98704.53;5075971;28;19920;-88
2023/05/26 02:43:45;;;;;;;;;;;;;;;29.72;28.77;98704.47;5074686;28;19920;-87
2023/05/26 02:46:13;;;;;;;;;;;;;;;29.80;28.74;98705.84;5071871;28;19928;-88
2023/05/26 02:48:39;;;;;;;;;;;;;;;29.79;29.06;98705.03;5070472;28;19923;-88
2023/05/26 02:51:05;;;;;;;;;;;;;;;29.78;28.96;98702.69;5070476;28;19921;-88
2023/05/26 02:53:32;;;;;;;;;;;;;;;29.72;28.99;98710.91;5074447;28;20379;-88
2023/05/26 02:55:58;;;;;;;;;;;;;;;29.69;29.00;98697.66;5074902;28;19971;-88
2023/05/26 02:58:24;;;;;;;;;;;;;;;29.73;29.00;98703.22;5075809;28;19959;-88
2023/05/26 03:00:52;;;;;;;;;;;;;;;29.77;28.98;98699.06;5074289;28;19927;-88
2023/05/26 03:03:18;;;;;;;;;;;;;;;29.84;28.40;98700.84;5067876;28;20357;-88
2023/05/26 03:05:45;;;;;;;;;;;;;;;29.62;29.25;98706.41;5073585;28;19977;-88
2023/05/26 03:08:11;;;;;;;;;;;;;;;29.63;28.94;98687.41;5075944;28;19924;-88
2023/05/26 03:10:39;;;;;;;;;;;;;;;29.65;28.86;98691.34;5074341;28;19924;-88
2023/05/26 03:13:05;;;;;;;;;;;;;;;29.71;28.85;98692.34;5076753;28;19921;-88
2023/05/26 03:15:35;;;;;;;;;;;;;;;29.79;28.68;98690.88;5077235;28;19977;-88
2023/05/26 03:18:02;;;;;;;;;;;;;;;29.85;28.68;98691.09;5076382;28;19920;-88
2023/05/26 03:20:28;;;;;;;;;;;;;;;29.84;28.86;98692.34;5074758;28;19920;-89
2023/05/26 03:22:54;;;;;;;;;;;;;;;29.81;28.67;98688.38;5076172;28;20455;-88
2023/05/26 03:25:20;;;;;;;;;;;;;;;29.83;28.83;98690.75;5076346;28;20269;-88
2023/05/26 03:27:46;;;;;;;;;;;;;;;29.90;28.78;98694.13;5075569;28;19923;-88
2023/05/26 03:30:12;;;;;;;;;;;;;;;29.99;28.68;98684.94;5081019;28;20362;-88
2023/05/26 03:32:38;;;;;;;;;;;;;;;30.05;28.66;98694.41;5081416;28;20299;-88
2023/05/26 03:35:04;;;;;;;;;;;;;;;30.11;28.51;98688.94;5079165;28;19921;-88
2023/05/26 03:37:30;;;;;;;;;;;;;;;30.13;28.65;98686.44;5075390;28;20372;-88
2023/05/26 03:39:57;;;;;;;;;;;;;;;30.17;28.60;98687.09;5084717;28;19959;-88
2023/05/26 03:42:23;;;;;;;;;;;;;;;30.19;28.59;98684.59;5078303;28;19931;-88
2023/05/26 03:44:49;;;;;;;;;;;;;;;30.00;29.47;98687.28;5076247;28;19917;-88
2023/05/26 03:47:15;;;;;;;;;;;;;;;30.17;29.51;98684.25;5065236;28;19927;-88
2023/05/26 03:49:41;;;;;;;;;;;;;;;30.32;29.01;98690.97;5075002;28;19920;-88
2023/05/26 03:52:07;;;;;;;;;;;;;;;30.25;29.49;98692.03;5068495;28;19921;-88
2023/05/26 03:54:33;;;;;;;;;;;;;;;30.29;30.36;98687.03;5070658;28;19924;-88
2023/05/26 03:56:59;;;;;;;;;;;;;;;30.44;29.81;98685.25;5079812;28;19920;-88
2023/05/26 03:59:25;;;;;;;;;;;;;;;30.49;30.05;98687.50;5072325;28;19971;-88
2023/05/26 04:01:51;;;;;;;;;;;;;;;30.51;30.35;98687.00;5076575;28;19924;-88
2023/05/26 04:04:17;;;;;;;;;;;;;;;30.59;29.44;98685.50;5075654;28;20400;-88
2023/05/26 04:06:43;;;;;;;;;;;;;;;30.57;29.71;98676.69;5073699;28;19921;-89
2023/05/26 04:09:09;;;;;;;;;;;;;;;30.60;30.14;98685.03;5074813;28;20376;-88
2023/05/26 04:11:35;;;;;;;;;;;;;;;30.62;30.03;98681.75;5074495;28;19970;-88
2023/05/26 04:14:01;;;;;;;;;;;;;;;30.62;29.88;98685.34;5074229;28;20400;-90
2023/05/26 04:16:27;;;;;;;;;;;;;;;30.56;30.25;98686.41;5069927;28;20287;-89
2023/05/26 04:18:53;;;;;;;;;;;;;;;30.56;30.62;98677.91;5072827;28;19920;-89
2023/05/26 04:21:20;;;;;;;;;;;;;;;30.79;30.06;98688.75;5074895;28;20003;-89
2023/05/26 04:23:51;;;;;;;;;;;;;;;31.00;30.09;98687.13;5072400;28;20596;-90
2023/05/26 04:26:17;;;;;;;;;;;;;;;31.20;29.79;98696.03;5073018;28;19924;-90
2023/05/26 04:28:47;;;;;;;;;;;;;;;31.09;29.98;98693.63;5069391;28;19925;-90
2023/05/26 04:31:16;;;;;;;;;;;;;;;30.97;30.07;98697.34;5074359;28;20300;-89
2023/05/26 04:33:44;;;;;;;;;;;;;;;31.00;30.25;98689.97;5074945;28;19931;-89
2023/05/26 04:36:10;;;;;;;;;;;;;;;31.07;30.49;98690.47;5072576;28;19964;-88
2023/05/26 04:38:37;;;;;;;;;;;;;;;31.06;30.56;98696.63;5074230;28;19959;-88
2023/05/26 04:41:07;;;;;;;;;;;;;;;31.22;31.62;98690.69;5064749;28;19968;-90
2023/05/26 04:43:35;;;;;;;;;;;;;;;31.53;30.93;98688.56;5073633;28;21207;-89
2023/05/26 04:46:02;;;;;;;;;;;;;;;31.67;32.22;98696.47;5070098;28;20350;-89
2023/05/26 04:48:28;;;;;;;;;;;;;;;31.92;32.89;98696.19;5072701;28;20299;-90
2023/05/26 04:50:54;;;;;;;;;;;;;;;32.39;32.07;98692.84;5071912;28;19927;-89
2023/05/26 04:53:20;;;;;;;;;;;;;;;32.78;31.22;98693.09;5067736;28;19952;-90
2023/05/26 04:55:47;;;;;;;;;;;;;;;33.13;31.08;98697.09;5067818;28;19921;-90
2023/05/26 04:58:13;;;;;;;;;;;;;;;33.20;30.40;98696.72;5067641;28;19935;-90
2023/05/26 05:00:40;;;;;;;;;;;;;;;33.28;29.90;98704.44;5073440;28;20015;-91
2023/05/26 05:03:06;;;;;;;;;;;;;;;33.27;29.42;98699.22;5078067;28;19920;-89
2023/05/26 05:05:32;;;;;;;;;;;;;;;33.25;29.45;98705.41;5069832;28;20398;-88
2023/05/26 05:07:58;;;;;;;;;;;;;;;33.36;30.86;98693.47;5068609;28;19928;-91
2023/05/26 05:10:24;;;;;;;;;;;;;;;33.61;30.28;98700.81;5068605;28;19974;-91
2023/05/26 05:12:52;;;;;;;;;;;;;;;33.65;29.08;98699.34;5073239;28;20294;-91
2023/05/26 05:15:19;;;;;;;;;;;;;;;33.57;31.07;98698.13;5070849;28;19921;-91
2023/05/26 05:17:46;;;;;;;;;;;;;;;33.65;30.82;98693.66;5053810;28;19920;-91
2023/05/26 05:20:12;;;;;;;;;;;;;;;33.81;29.98;98696.06;5071546;28;19978;-91
2023/05/26 05:22:38;;;;;;;;;;;;;;;33.89;30.06;98693.59;5093269;28;20367;-90
2023/05/26 05:25:04;;;;;;;;;;;;;;;33.98;30.06;98696.41;5092653;28;19916;-90
2023/05/26 05:27:30;;;;;;;;;;;;;;;34.07;30.13;98697.13;5081785;28;20276;-91
2023/05/26 05:29:56;;;;;;;;;;;;;;;34.10;30.16;98695.34;5084602;28;19959;-91
2023/05/26 05:32:22;;;;;;;;;;;;;;;34.27;28.29;98693.63;5076488;28;20428;-91
2023/05/26 05:34:48;;;;;;;;;;;;;;;34.18;31.26;98692.91;5073476;28;20062;-91
2023/05/26 05:37:14;;;;;;;;;;;;;;;34.53;27.90;98691.03;5073993;28;19917;-91
2023/05/26 05:39:40;;;;;;;;;;;;;;;34.48;30.13;98698.16;5084788;28;20291;-91
2023/05/26 05:42:06;;;;;;;;;;;;;;;34.74;31.80;98684.91;5082829;28;20011;-91
2023/05/26 05:44:32;;;;;;;;;;;;;;;34.70;29.84;98692.88;5074135;28;20006;-91
2023/05/26 05:46:58;;;;;;;;;;;;;;;34.53;28.95;98705.28;5070715;28;19924;-91
2023/05/26 05:49:24;;;;;;;;;;;;;;;33.58;28.88;98708.25;5067648;28;19928;-91
2023/05/26 05:51:50;;;;;;;;;;;;;;;33.24;28.12;98715.22;5069592;28;19917;-91
2023/05/26 05:54:16;;;;;;;;;;;;;;;33.21;29.15;98715.41;5054162;28;19943;-91
2023/05/26 05:56:42;;;;;;;;;;;;;;;32.93;29.52;98711.81;5072231;28;20442;-91
2023/05/26 05:59:10;;;;;;;;;;;;;;;32.51;27.83;98716.72;5077999;28;19931;-91
2023/05/26 06:01:36;;;;;;;;;;;;;;;32.12;27.68;98724.13;5076517;28;20436;-91
2023/05/26 06:04:02;;;;;;;;;;;;;;;31.84;28.44;98729.00;5093424;28;20018;-91
2023/05/26 06:06:28;;;;;;;;;;;;;;;31.91;29.18;98717.31;5092541;28;20007;-91
2023/05/26 06:08:54;;;;;;;;;;;;;;;32.18;29.40;98730.78;5069686;28;20071;-91
2023/05/26 06:11:21;;;;;;;;;;;;;;;32.56;29.28;98725.38;5072198;28;20368;-91
2023/05/26 06:13:47;;;;;;;;;;;;;;;32.55;27.67;98726.66;5073699;28;19973;-90
2023/05/26 06:16:13;;;;;;;;;;;;;;;32.48;28.60;98726.16;5073466;28;20015;-91
2023/05/26 06:18:39;;;;;;;;;;;;;;;32.36;29.39;98722.22;5073650;28;19923;-91
2023/05/26 06:21:05;;;;;;;;;;;;;;;32.52;29.18;98721.13;5075074;28;19951;-91
2023/05/26 06:23:31;;;;;;;;;;;;;;;32.59;28.74;98715.91;5086386;28;19927;-91
2023/05/26 06:25:57;;;;;;;;;;;;;;;32.52;30.45;98715.44;5068130;28;19921;-91
2023/05/26 06:28:23;;;;;;;;;;;;;;;32.40;28.76;98722.06;5053755;28;19994;-91
2023/05/26 06:30:49;;;;;;;;;;;;;;;32.35;29.64;98720.63;5053462;28;20400;-89
2023/05/26 06:33:15;;;;;;;;;;;;;;;32.55;29.97;98726.66;5055244;28;19917;-90
2023/05/26 06:35:41;;;;;;;;;;;;;;;32.64;28.81;98725.84;5073728;28;19922;-90
2023/05/26 06:38:07;;;;;;;;;;;;;;;32.41;28.47;98729.31;5072840;28;19916;-90
2023/05/26 06:40:34;;;;;;;;;;;;;;;32.43;28.84;98730.44;5073692;28;19959;-90
2023/05/26 06:43:00;;;;;;;;;;;;;;;32.76;30.05;98733.41;5068246;28;19917;-89
2023/05/26 06:45:26;;;;;;;;;;;;;;;33.07;29.17;98733.16;5081131;28;19920;-90
2023/05/26 06:47:52;;;;;;;;;;;;;;;33.03;27.80;98741.06;5075281;28;19921;-90
2023/05/26 06:50:18;;;;;;;;;;;;;;;32.59;30.03;98737.84;5070998;28;19916;-89
2023/05/26 06:52:44;;;;;;;;;;;;;;;32.42;29.85;98737.38;5069477;28;19917;-90
2023/05/26 06:55:10;;;;;;;;;;;;;;;32.33;28.72;98743.06;5079250;28;20261;-90
2023/05/26 06:57:36;;;;;;;;;;;;;;;32.54;28.43;98741.34;5084953;28;19917;-90
2023/05/26 07:00:03;;;;;;;;;;;;;;;32.51;29.55;98745.91;5077804;28;19956;-90
2023/05/26 07:02:29;;;;;;;;;;;;;;;32.67;29.31;98745.56;5083091;28;19920;-89
2023/05/26 07:04:55;;;;;;;;;;;;;;;32.63;28.25;98742.09;5084759;28;19947;-90
2023/05/26 07:07:21;;;;;;;;;;;;;;;32.59;29.15;98747.19;5077617;28;20277;-90
2023/05/26 07:09:47;;;;;;;;;;;;;;;32.71;29.62;98746.22;5076969;28;19916;-90
2023/05/26 07:12:13;;;;;;;;;;;;;;;33.14;28.84;98744.97;5075441;28;19974;-89
2023/05/26 07:14:39;;;;;;;;;;;;;;;33.01;28.95;98744.41;5076669;28;19922;-89
2023/05/26 07:17:05;;;;;;;;;;;;;;;33.00;29.79;98739.16;5074586;28;19916;-89
2023/05/26 07:19:31;;;;;;;;;;;;;;;33.05;29.77;98733.63;5097212;28;19923;-90
2023/05/26 07:21:57;;;;;;;;;;;;;;;33.21;30.47;98735.31;5096733;28;19994;-89
2023/05/26 07:24:23;;;;;;;;;;;;;;;33.36;29.70;98734.13;5093731;28;19920;-89
2023/05/26 07:26:49;;;;;;;;;;;;;;;33.73;31.15;98740.41;5057415;28;19917;-89
2023/05/26 07:29:15;;;;;;;;;;;;;;;33.86;29.31;98738.13;5076364;28;19928;-90
2023/05/26 07:31:41;;;;;;;;;;;;;;;34.05;31.24;98741.66;5076342;28;20356;-89
2023/05/26 07:34:07;;;;;;;;;;;;;;;34.00;28.00;98734.50;5070490;28;19956;-90
2023/05/26 07:36:34;;;;;;;;;;;;;;;33.66;29.10;98740.00;5056563;28;19921;-89
2023/05/26 07:39:00;;;;;;;;;;;;;;;33.41;28.50;98738.38;5092207;28;20371;-89
2023/05/26 07:41:26;;;;;;;;;;;;;;;33.26;29.06;98731.78;5096831;28;19923;-90
2023/05/26 07:43:52;;;;;;;;;;;;;;;33.24;28.32;98732.28;5077050;28;19917;-90
2023/05/26 07:46:18;;;;;;;;;;;;;;;33.41;28.88;98732.69;5085924;28;19977;-89
2023/05/26 07:48:44;;;;;;;;;;;;;;;33.14;29.52;98733.59;5080961;28;20367;-90
2023/05/26 07:51:10;;;;;;;;;;;;;;;33.06;30.20;98740.91;5068701;28;19924;-90
2023/05/26 07:53:36;;;;;;;;;;;;;;;33.30;30.16;98736.03;5055637;28;19917;-90
2023/05/26 07:56:03;;;;;;;;;;;;;;;33.40;29.00;98742.47;5056066;28;20011;-90
2023/05/26 07:58:29;;;;;;;;;;;;;;;33.05;29.91;98736.47;5069192;28;20447;-90
2023/05/26 08:00:55;;;;;;;;;;;;;;;33.16;29.77;98748.16;5074347;28;20091;-90
2023/05/26 08:03:21;;;;;;;;;;;;;;;33.49;31.12;98744.50;5067391;28;19924;-87
2023/05/26 08:05:47;;;;;;;;;;;;;;;33.70;29.81;98740.63;5072388;28;19921;-88
2023/05/26 08:08:14;;;;;;;;;;;;;;;33.75;29.09;98742.81;5071038;28;20387;-87
2023/05/26 08:10:40;;;;;;;;;;;;;;;33.84;28.86;98745.59;5072916;28;19969;-87
2023/05/26 08:13:06;;;;;;;;;;;;;;;33.71;29.47;98740.13;5071299;28;20655;-88
2023/05/26 08:15:32;;;;;;;;;;;;;;;33.60;29.68;98751.28;5076843;28;19927;-87
2023/05/26 08:17:58;;;;;;;;;;;;;;;33.34;29.57;98748.06;5077378;28;19952;-87
2023/05/26 08:20:24;;;;;;;;;;;;;;;33.77;30.98;98741.03;5072068;28;20005;-87
2023/05/26 08:22:50;;;;;;;;;;;;;;;34.35;29.25;98745.38;5072512;28;19932;-87
2023/05/26 08:25:16;;;;;;;;;;;;;;;34.32;28.83;98744.28;5069605;28;19927;-87
2023/05/26 08:27:42;;;;;;;;;;;;;;;33.93;28.36;98746.31;5073714;28;20280;-87
2023/05/26 08:30:08;;;;;;;;;;;;;;;33.81;30.98;98749.41;5073980;28;20058;-87
2023/05/26 08:32:34;;;;;;;;;;;;;;;34.32;30.15;98746.31;5072771;28;19925;-87
2023/05/26 08:35:00;;;;;;;;;;;;;;;34.61;29.36;98741.47;5073590;28;19920;-88
2023/05/26 08:37:26;;;;;;;;;;;;;;;34.71;28.99;98750.72;5073648;28;19921;-88
2023/05/26 08:39:52;;;;;;;;;;;;;;;34.75;28.05;98742.78;5074410;28;19920;-87
2023/05/26 08:42:19;;;;;;;;;;;;;;;34.63;30.52;98747.50;5066748;28;19990;-87
2023/05/26 08:44:45;;;;;;;;;;;;;;;34.76;28.77;98738.63;5068358;28;20371;-88
2023/05/26 08:47:12;;;;;;;;;;;;;;;34.80;29.44;98736.34;5066487;28;19929;-88
2023/05/26 08:50:04;;;;;;;;;;;;;;;35.03;30.11;98726.91;5062788;28;20011;-87
2023/05/26 08:52:31;;;;;;;;;;;;;;;35.32;31.05;98732.59;5066091;28;19928;-88
2023/05/26 08:54:57;;;;;;;;;;;;;;;35.48;28.96;98736.16;5079749;28;20295;-88
2023/05/26 08:57:25;;;;;;;;;;;;;;;35.62;31.04;98733.31;5071737;28;20022;-87
2023/05/26 08:59:52;;;;;;;;;;;;;;;35.44;27.67;98733.53;5068533;28;19924;-88
2023/05/26 09:02:18;;;;;;;;;;;;;;;35.52;29.82;98733.94;5073109;28;19916;-87
2023/05/26 09:04:44;;;;;;;;;;;;;;;35.91;30.00;98723.81;5082479;28;19928;-88
2023/05/26 09:07:10;;;;;;;;;;;;;;;36.06;28.68;98728.19;5073379;28;19924;-87
2023/05/26 09:09:36;;;;;;;;;;;;;;;36.16;30.68;98728.03;5067816;28;19923;-88
2023/05/26 09:12:08;;;;;;;;;;;;;;;36.41;29.89;98722.34;5066773;28;19928;-87
2023/05/26 09:14:35;;;;;;;;;;;;;;;36.50;29.03;98725.06;5069021;28;19921;-88
2023/05/26 09:17:02;;;;;;;;;;;;;;;36.38;29.32;98729.09;5070541;28;19927;-88
2023/05/26 09:19:28;;;;;;;;;;;;;;;36.40;28.24;98729.38;5071872;28;20292;-87
2023/05/26 09:21:54;;;;;;;;;;;;;;;36.43;29.38;98739.78;5069544;28;20411;-88
2023/05/26 09:24:25;;;;;;;;;;;;;;;36.58;28.46;98728.28;5070496;28;19921;-88
2023/05/26 09:26:51;;;;;;;;;;;;;;;36.35;27.17;98726.44;5068323;28;19925;-88
2023/05/26 09:29:17;;;;;;;;;;;;;;;36.02;26.76;98727.63;5064447;28;20415;-87
2023/05/26 09:31:44;;;;;;;;;;;;;;;35.98;27.80;98724.22;5070864;28;19985;-88
2023/05/26 09:34:11;;;;;;;;;;;;;;;35.93;28.03;98727.75;5071124;28;20012;-87
2023/05/26 09:36:38;;;;;;;;;;;;;;;35.69;29.37;98724.31;5064457;28;19920;-87
2023/05/26 09:39:05;;;;;;;;;;;;;;;35.98;28.71;98723.44;5083587;28;19920;-88
2023/05/26 09:41:37;;;;;;;;;;;;;;;36.21;27.45;98715.88;5065262;28;19916;-87
2023/05/26 09:44:13;;;;;;;;;;;;;;;35.84;27.52;98722.19;5066383;28;19924;-87
2023/05/26 09:46:40;;;;;;;;;;;;;;;35.86;29.00;98727.41;5071103;28;19921;-88
2023/05/26 09:49:07;;;;;;;;;;;;;;;36.25;29.59;98713.59;5072477;28;20015;-87
2023/05/26 09:51:33;;;;;;;;;;;;;;;36.78;31.74;98718.84;5066283;28;20402;-88
2023/05/26 09:54:00;;;;;;;;;;;;;;;37.30;31.05;98709.66;5071222;28;20414;-88
2023/05/26 09:56:31;;;;;;;;;;;;;;;37.54;29.43;98717.91;5059264;28;19928;-88
2023/05/26 09:58:57;;;;;;;;;;;;;;;37.22;28.22;98717.16;5066049;28;19931;-87
2023/05/26 10:01:24;;;;;;;;;;;;;;;36.96;25.19;98707.06;5069095;28;19928;-87
2023/05/26 10:03:51;;;;;;;;;;;;;;;36.12;25.34;98705.41;5068209;28;19927;-87
2023/05/26 10:06:18;;;;;;;;;;;;;;;36.02;28.61;98703.97;5064231;28;19920;-88
2023/05/26 10:08:45;;;;;;;;;;;;;;;35.86;27.31;98702.47;5070426;28;20373;-89
2023/05/26 10:11:12;;;;;;;;;;;;;;;35.93;26.76;98702.03;5074887;28;19921;-87
2023/05/26 10:13:38;;;;;;;;;;;;;;;35.94;27.58;98705.69;5072536;28;20007;-89
2023/05/26 10:16:04;;;;;;;;;;;;;;;35.78;26.93;98709.13;5071719;28;20368;-89
2023/05/26 10:18:31;;;;;;;;;;;;;;;36.39;29.53;98699.19;5069193;28;19924;-89
2023/05/26 10:21:00;;;;;;;;;;;;;;;36.58;26.64;98699.66;5069439;28;19956;-89
2023/05/26 10:23:47;;;;;;;;;;;;;;;36.96;29.44;98702.13;5069959;28;19927;-88
2023/05/26 10:26:37;;;;;;;;;;;;;;;36.77;27.10;98703.75;5066296;28;19924;-88
2023/05/26 10:29:05;;;;;;;;;;;;;;;36.56;29.41;98705.09;5067731;28;20023;-86
2023/05/26 10:31:33;;;;;;;;;;;;;;;36.75;27.83;98703.47;5065626;28;20490;-87
2023/05/26 10:33:59;;;;;;;;;;;;;;;36.57;28.43;98698.88;5073522;28;19943;-87
2023/05/26 10:36:26;;;;;;;;;;;;;;;36.49;27.06;98702.69;5070899;28;19948;-87
2023/05/26 10:38:53;;;;;;;;;;;;;;;36.57;27.63;98701.72;5076601;28;19921;-87
2023/05/26 10:41:36;;;;;;;;;;;;;;;36.46;27.56;98695.91;5070952;28;19927;-87
2023/05/26 10:44:03;;;;;;;;;;;;;;;36.43;27.79;98694.03;5073096;28;20002;-87
2023/05/26 10:46:42;;;;;;;;;;;;;;;36.35;27.25;98692.13;5074060;28;19974;-86
2023/05/26 10:49:21;;;;;;;;;;;;;;;36.37;26.50;98680.94;5065623;28;20391;-86
2023/05/26 10:51:48;;;;;;;;;;;;;;;36.52;27.62;98690.25;5072845;28;19932;-86
2023/05/26 10:54:16;;;;;;;;;;;;;;;36.73;28.96;98683.16;5071485;28;19924;-86
2023/05/26 10:56:42;;;;;;;;;;;;;;;36.77;29.49;98692.28;5071874;28;19921;-86
2023/05/26 10:59:19;;;;;;;;;;;;;;;36.91;29.20;98697.13;5071292;28;19925;-85
2023/05/26 11:01:54;;;;;;;;;;;;;;;37.14;27.93;98696.00;5071557;28;19929;-86
2023/05/26 11:04:21;;;;;;;;;;;;;;;37.01;24.98;98694.88;5069799;28;19974;-86
2023/05/26 11:06:50;;;;;;;;;;;;;;;36.86;25.54;98694.97;5074284;28;19966;-87
2023/05/26 11:09:22;;;;;;;;;;;;;;;36.44;28.42;98697.66;5074870;28;19921;-83
2023/05/26 11:11:49;;;;;;;;;;;;;;;36.20;25.42;98702.91;5073361;28;19920;-83
2023/05/26 11:14:21;;;;;;;;;;;;;;;36.13;25.95;98686.94;5074518;28;19924;-83
2023/05/26 11:16:47;;;;;;;;;;;;;;;35.90;27.67;98697.31;5074388;28;19973;-82
2023/05/26 11:19:14;;;;;;;;;;;;;;;36.02;30.10;98687.59;5072126;28;19924;-83
2023/05/26 11:21:40;;;;;;;;;;;;;;;36.43;27.85;98685.44;5070063;28;20295;-82
2023/05/26 11:24:06;;;;;;;;;;;;;;;37.00;27.97;98679.75;5074063;28;19940;-83
2023/05/26 11:26:33;;;;;;;;;;;;;;;36.64;29.47;98684.09;5071928;28;19921;-84
2023/05/26 11:29:00;;;;;;;;;;;;;;;36.61;26.42;98684.34;5067400;28;20300;-84
2023/05/26 11:31:26;;;;;;;;;;;;;;;36.96;28.16;98672.69;5074836;28;19920;-85
2023/05/26 11:33:53;;;;;;;;;;;;;;;36.87;27.71;98672.88;5069105;28;19974;-86
2023/05/26 11:36:19;;;;;;;;;;;;;;;36.95;29.92;98668.25;5072188;28;19927;-86
2023/05/26 11:38:47;;;;;;;;;;;;;;;36.84;27.18;98665.28;5072825;28;20414;-85
2023/05/26 11:41:17;;;;;;;;;;;;;;;36.28;27.74;98659.03;5056064;28;19916;-85
2023/05/26 11:43:44;;;;;;;;;;;;;;;36.10;25.11;98667.16;5057673;28;20536;-86
2023/05/26 11:46:11;;;;;;;;;;;;;;;35.87;26.44;98651.81;5068960;28;19943;-85
2023/05/26 11:48:44;;;;;;;;;;;;;;;35.38;30.48;98667.00;5074440;28;19924;-85
2023/05/26 11:51:19;;;;;;;;;;;;;;;35.13;26.91;98667.63;5066298;28;19932;-86
2023/05/26 11:53:46;;;;;;;;;;;;;;;35.03;28.11;98666.97;5068455;28;19982;-84
2023/05/26 11:56:13;;;;;;;;;;;;;;;34.78;31.14;98664.72;5070474;28;20010;-83
2023/05/26 11:58:43;;;;;;;;;;;;;;;34.45;28.93;98675.56;5075403;28;19931;-84
2023/05/26 12:01:09;;;;;;;;;;;;;;;33.78;31.34;98668.53;5067786;28;19990;-84
2023/05/26 12:03:38;;;;;;;;;;;;;;;33.56;28.28;98659.50;5075469;28;20012;-84
2023/05/26 12:06:17;;;;;;;;;;;;;;;33.69;28.31;98662.91;5079275;28;19920;-84
2023/05/26 12:08:43;;;;;;;;;;;;;;;33.68;26.43;98663.41;5076125;28;19920;-84
2023/05/26 12:11:16;;;;;;;;;;;;;;;33.51;30.85;98665.88;5074468;28;19926;-83
2023/05/26 12:13:42;;;;;;;;;;;;;;;33.41;30.96;98659.44;5066262;28;20011;-84
2023/05/26 12:16:18;;;;;;;;;;;;;;;33.22;29.66;98657.19;5070292;28;19927;-84
2023/05/26 12:18:44;;;;;;;;;;;;;;;32.84;33.16;98657.06;5067368;28;19974;-84
2023/05/26 12:21:10;;;;;;;;;;;;;;;32.77;37.02;98657.41;5055087;28;19921;-83
2023/05/26 12:23:37;;;;;;;;;;;;;;;32.92;35.20;98658.25;5062725;28;19917;-83
2023/05/26 12:26:30;;;;;;;;;;;;;;;32.02;38.94;98654.38;5071556;28;19974;-84
2023/05/26 12:29:15;;;;;;;;;;;;;;;32.76;38.12;98650.91;5066042;28;19932;-83
2023/05/26 12:31:41;;;;;;;;;;;;;;;32.08;32.28;98644.75;5071978;28;19929;-84
2023/05/26 12:34:08;;;;;;;;;;;;;;;32.68;32.12;98649.66;5069417;28;20295;-84
2023/05/26 12:36:34;;;;;;;;;;;;;;;33.50;35.91;98638.66;5064078;28;19924;-84
2023/05/26 12:39:01;;;;;;;;;;;;;;;33.61;30.14;98652.38;5065484;28;19924;-84
2023/05/26 12:41:27;;;;;;;;;;;;;;;32.49;33.95;98636.75;5069009;28;19928;-84
2023/05/26 12:43:53;;;;;;;;;;;;;;;32.89;34.58;98630.75;5069905;28;19927;-83
2023/05/26 12:46:19;;;;;;;;;;;;;;;33.85;29.26;98633.97;5322788;22;20575;-84
2023/05/26 12:48:45;;;;;;;;;;;;;;;32.92;29.26;98636.28;5080676;28;19931;-84